Terminal Aerodrome Forecast
Issued by NWS Sterling, VA

Current Version | Previous Version | Text Only | Print | Product List | Glossary Off
Versions: 1 2 3 4 5 6 7 8 9 10 11 12 13 14 15 16 17 18 19 20 21 22

860
FTUS41 KLWX 191735
TAFIAD
TAF
KIAD 191735Z 1918/2024 00000KT P6SM OVC004
     FM200300 19006KT P6SM BKN008
     FM200600 20004KT 3SM BR OVC008
     FM201400 23009KT P6SM BKN040
     FM202200 30008KT P6SM SCT050=

USA.gov is the U.S. government's official web portal to all federal, state and local government web resources and services.